createdAt,value
2022-08-25T00:00:24.982Z,97667.20
2022-08-25T00:02:57.691Z,97667.77
2022-08-25T00:05:29.417Z,97668.58
2022-08-25T00:07:59.999Z,97670.24
2022-08-25T00:10:29.901Z,97672.98
2022-08-25T00:12:59.374Z,97676.23
2022-08-25T00:15:32.021Z,97672.69
2022-08-25T00:18:02.298Z,97679.52
2022-08-25T00:20:32.007Z,97673.50
2022-08-25T00:23:01.953Z,97679.82
2022-08-25T00:25:31.640Z,97683.63
2022-08-25T00:28:07.787Z,97680.08
2022-08-25T00:30:36.802Z,97680.08
2022-08-25T00:33:06.532Z,97684.45
2022-08-25T00:35:36.371Z,97687.47
2022-08-25T00:38:06.218Z,97691.83
2022-08-25T00:40:36.061Z,97693.48
2022-08-25T00:43:06.852Z,97694.02
2022-08-25T00:45:36.568Z,97695.11
2022-08-25T00:48:09.123Z,97695.11
2022-08-25T00:50:38.637Z,97689.36
2022-08-25T00:53:09.046Z,97698.37
2022-08-25T00:55:43.070Z,97695.90
2022-08-25T00:58:14.828Z,97704.66
2022-08-25T01:00:46.576Z,97704.12
2022-08-25T01:03:16.964Z,97703.86
2022-08-25T01:05:47.508Z,97706.05
2022-08-25T01:08:19.829Z,97701.13
2022-08-25T01:10:50.452Z,97695.91
2022-08-25T01:13:24.402Z,97696.98
2022-08-25T01:15:56.663Z,97706.83
2022-08-25T01:18:26.419Z,97712.05
2022-08-25T01:21:00.461Z,97710.42
2022-08-25T01:23:30.084Z,97716.98
2022-08-25T01:26:08.446Z,97725.19
2022-08-25T01:28:38.143Z,97729.02
2022-08-25T01:31:23.831Z,97734.45
2022-08-25T01:33:40.450Z,97736.64
2022-08-25T01:36:10.412Z,97743.49
2022-08-25T01:38:45.067Z,97746.80
2022-08-25T01:41:14.855Z,97747.88
2022-08-25T01:43:46.416Z,97749.81
2022-08-25T01:46:17.107Z,97758.80
2022-08-25T01:48:47.091Z,97759.35
2022-08-25T01:51:21.069Z,97764.84
2022-08-25T01:53:51.823Z,97756.38
2022-08-25T01:56:21.365Z,97764.59
2022-08-25T01:58:51.178Z,97765.97
2022-08-25T02:01:23.554Z,97774.71
2022-08-25T02:03:54.255Z,97777.43
2022-08-25T02:06:30.200Z,97781.55
2022-08-25T02:09:02.084Z,97782.63
2022-08-25T02:11:31.760Z,97784.30
2022-08-25T02:14:01.665Z,97783.75
2022-08-25T02:16:35.700Z,97779.88
2022-08-25T02:19:07.461Z,97790.52
2022-08-25T02:21:36.960Z,97798.96
2022-08-25T02:24:07.594Z,97806.92
2022-08-25T02:26:37.168Z,97809.12
2022-08-25T02:29:08.066Z,97806.69
2022-08-25T02:31:37.774Z,97815.16
2022-08-25T02:34:07.503Z,97813.52
2022-08-25T02:36:37.145Z,97829.94
2022-08-25T02:39:48.871Z,97832.90
2022-08-25T02:42:07.761Z,97835.36
2022-08-25T02:44:37.239Z,97841.94
2022-08-25T02:47:08.428Z,97852.63
2022-08-25T02:49:38.049Z,97852.08
2022-08-25T02:52:07.799Z,97849.91
2022-08-25T02:54:37.511Z,97858.11
2022-08-25T02:57:07.322Z,97863.84
2022-08-25T02:59:36.978Z,97858.86
2022-08-25T03:02:06.941Z,97865.13
2022-08-25T03:04:36.846Z,97865.97
2022-08-25T03:07:09.701Z,97869.27
2022-08-25T03:09:46.753Z,97869.02
2022-08-25T03:12:17.835Z,97874.20
2022-08-25T03:14:48.152Z,97877.80
2022-08-25T03:17:18.303Z,97878.61
2022-08-25T03:19:48.746Z,97885.47
2022-08-25T03:22:19.349Z,97880.53
2022-08-25T03:24:49.322Z,97886.55
2022-08-25T03:27:19.319Z,97883.00
2022-08-25T03:29:50.263Z,97886.00
2022-08-25T03:32:22.652Z,97885.75
2022-08-25T03:34:52.303Z,97884.66
2022-08-25T03:37:22.036Z,97891.80
2022-08-25T03:39:52.016Z,97896.72
2022-08-25T03:42:21.702Z,97901.64
2022-08-25T03:44:51.528Z,97902.20
2022-08-25T03:47:21.635Z,97904.39
2022-08-25T03:49:52.392Z,97906.03
2022-08-25T03:52:21.907Z,97901.41
2022-08-25T03:54:51.428Z,97899.48
2022-08-25T03:57:21.542Z,97884.65
2022-08-25T03:59:51.589Z,97903.86
2022-08-25T04:02:21.628Z,97904.98
2022-08-25T04:04:51.585Z,97903.06
2022-08-25T04:07:22.735Z,97900.32
2022-08-25T04:09:52.470Z,97901.95
2022-08-25T04:12:22.129Z,97904.17
2022-08-25T04:14:52.492Z,97906.63
2022-08-25T04:17:22.621Z,97906.08
2022-08-25T04:19:52.685Z,97903.64
2022-08-25T04:22:23.677Z,97909.93
2022-08-25T04:24:53.280Z,97908.02
2022-08-25T04:27:22.857Z,97912.69
2022-08-25T04:29:52.369Z,97912.69
2022-08-25T04:32:22.524Z,97907.77
2022-08-25T04:34:52.660Z,97912.14
2022-08-25T04:37:22.192Z,97920.09
2022-08-25T04:39:51.856Z,97927.45
2022-08-25T04:42:22.418Z,97925.84
2022-08-25T04:44:51.943Z,97925.29
2022-08-25T04:47:21.791Z,97929.69
2022-08-25T04:49:53.067Z,97932.98
2022-08-25T04:52:22.601Z,97932.17
2022-08-25T04:54:52.414Z,97934.91
2022-08-25T04:57:22.088Z,97935.73
2022-08-25T04:59:51.829Z,97937.92
2022-08-25T05:02:21.593Z,97932.19
2022-08-25T05:04:51.656Z,97931.92
2022-08-25T05:07:21.567Z,97938.48
2022-08-25T05:09:51.688Z,97942.89
2022-08-25T05:12:21.732Z,97938.23
2022-08-25T05:14:53.023Z,97938.23
2022-08-25T05:17:22.658Z,97943.97
2022-08-25T05:19:52.190Z,97937.43
2022-08-25T05:22:22.073Z,97938.52
2022-08-25T05:24:51.894Z,97938.52
2022-08-25T05:27:21.979Z,97947.00
2022-08-25T05:29:51.630Z,97951.10
2022-08-25T05:32:21.853Z,97955.51
2022-08-25T05:34:52.054Z,97959.88
2022-08-25T05:37:21.602Z,97958.52
2022-08-25T05:39:51.391Z,97954.41
2022-08-25T05:42:23.209Z,97954.70
2022-08-25T05:44:52.870Z,97950.85
2022-08-25T05:47:22.382Z,97961.27
2022-08-25T05:49:51.927Z,97963.19
2022-08-25T05:52:21.639Z,97959.34
2022-08-25T05:54:51.658Z,97960.20
2022-08-25T05:57:21.698Z,97963.75
2022-08-25T05:59:51.955Z,97961.02
2022-08-25T06:02:39.472Z,97962.39
2022-08-25T06:05:09.969Z,97956.91
2022-08-25T06:07:39.475Z,97962.92
2022-08-25T06:10:11.014Z,97961.84
2022-08-25T06:12:40.810Z,97961.03
2022-08-25T06:15:14.313Z,97965.95
2022-08-25T06:17:44.016Z,97966.22
2022-08-25T06:20:16.691Z,97967.33
2022-08-25T06:22:46.196Z,97960.48
2022-08-25T06:25:16.843Z,97966.52
2022-08-25T06:27:46.604Z,97953.91
2022-08-25T06:30:24.623Z,97965.97
2022-08-25T06:32:53.132Z,97964.05
2022-08-25T06:35:23.673Z,97966.80
2022-08-25T06:37:53.288Z,97965.69
2022-08-25T06:40:23.789Z,97961.58
2022-08-25T06:42:53.945Z,97962.44
2022-08-25T06:45:23.454Z,97963.25
2022-08-25T06:47:53.149Z,97960.78
2022-08-25T06:50:22.879Z,97962.70
2022-08-25T06:52:52.602Z,97959.96
2022-08-25T06:55:23.749Z,97957.23
2022-08-25T06:57:55.276Z,97955.30
2022-08-25T07:00:25.012Z,97952.02
2022-08-25T07:02:56.269Z,97952.02
2022-08-25T07:05:40.829Z,97943.55
2022-08-25T07:07:57.251Z,97944.63
2022-08-25T07:10:26.808Z,97950.39
2022-08-25T07:12:59.810Z,97942.73
2022-08-25T07:15:29.312Z,97945.47
2022-08-25T07:17:59.872Z,97949.84
2022-08-25T07:20:30.274Z,97952.59
2022-08-25T07:23:03.065Z,97947.92
2022-08-25T07:25:32.570Z,97943.55
2022-08-25T07:28:02.158Z,97944.12
2022-08-25T07:33:03.492Z,97938.34
2022-08-25T07:35:37.675Z,97936.42
2022-08-25T07:38:04.404Z,97943.82
2022-08-25T07:40:38.534Z,97937.27
2022-08-25T07:43:09.842Z,97937.27
2022-08-25T07:48:12.417Z,97943.02
2022-08-25T07:50:46.006Z,97941.90
2022-08-25T07:53:16.671Z,97946.02
2022-08-25T07:55:47.214Z,97937.27
2022-08-25T07:58:18.917Z,97929.33
2022-08-25T08:00:50.793Z,97928.49
2022-08-25T08:03:42.294Z,97935.36
2022-08-25T08:05:53.240Z,97929.88
2022-08-25T08:08:22.819Z,97929.33
2022-08-25T08:11:04.803Z,97925.77
2022-08-25T08:13:24.669Z,97930.70
2022-08-25T08:15:56.695Z,97933.43
2022-08-25T08:18:26.566Z,97927.95
2022-08-25T08:20:56.135Z,97926.59
2022-08-25T08:23:27.100Z,97929.33
2022-08-25T08:25:57.125Z,97926.59
2022-08-25T08:28:28.577Z,97933.98
2022-08-25T08:30:58.311Z,97936.17
2022-08-25T08:33:27.832Z,97938.91
2022-08-25T08:36:05.483Z,97943.83
2022-08-25T08:38:36.345Z,97940.83
2022-08-25T08:44:27.012Z,97946.86
2022-08-25T08:47:08.872Z,97940.83
2022-08-25T08:49:48.039Z,97946.86
2022-08-25T08:52:18.931Z,97923.23
2022-08-25T08:54:52.780Z,97946.86
2022-08-25T08:57:23.840Z,97940.02
2022-08-25T08:59:59.035Z,97948.22
2022-08-25T09:02:39.256Z,97950.97
2022-08-25T09:05:11.008Z,97950.97
2022-08-25T09:07:56.201Z,97946.00
2022-08-25T09:10:26.222Z,97947.66
2022-08-25T09:13:11.309Z,97954.22
2022-08-25T09:16:22.412Z,97957.51
2022-08-25T09:18:54.824Z,97949.30
2022-08-25T09:21:36.284Z,97949.84
2022-08-25T09:24:36.122Z,97953.13
2022-08-25T09:27:21.255Z,97950.95
2022-08-25T09:30:07.716Z,97955.05
2022-08-25T09:32:52.391Z,97951.47
2022-08-25T09:35:25.118Z,97954.20
2022-08-25T09:38:11.217Z,97957.49
2022-08-25T09:40:42.969Z,97958.05
2022-08-25T09:43:24.046Z,97953.39
2022-08-25T09:45:59.383Z,97958.86
2022-08-25T09:48:41.043Z,97958.86
2022-08-25T09:51:27.461Z,97955.86
2022-08-25T09:53:59.370Z,97963.52
2022-08-25T09:56:32.540Z,97962.97
2022-08-25T09:59:34.110Z,97965.70
2022-08-25T10:01:57.968Z,97968.99
2022-08-25T10:04:37.139Z,97967.63
2022-08-25T10:07:28.228Z,97974.47
2022-08-25T10:09:59.435Z,97971.47
2022-08-25T10:12:42.692Z,97973.66
2022-08-25T10:15:29.235Z,97976.94
2022-08-25T10:17:53.248Z,97983.23
2022-08-25T10:20:25.315Z,97982.41
2022-08-25T10:22:55.530Z,97984.60
2022-08-25T10:25:28.008Z,97983.78
2022-08-25T10:28:15.702Z,97984.60
2022-08-25T10:31:06.417Z,97981.05
2022-08-25T10:33:50.422Z,97975.27
2022-08-25T10:36:40.762Z,97976.94
2022-08-25T10:39:34.283Z,97976.13
2022-08-25T10:42:01.092Z,97976.92
2022-08-25T10:44:54.728Z,97978.02
2022-08-25T10:47:50.123Z,97980.48
2022-08-25T10:50:49.015Z,97974.73
2022-08-25T10:53:40.030Z,97975.80
2022-08-25T10:56:24.409Z,97977.17
2022-08-25T10:59:13.678Z,97985.69
2022-08-25T11:02:13.488Z,97986.48
2022-08-25T11:05:11.112Z,97979.91
2022-08-25T11:07:49.825Z,97983.75
2022-08-25T11:10:23.117Z,97985.12
2022-08-25T11:12:57.472Z,97985.12
2022-08-25T11:15:34.434Z,97987.86
2022-08-25T11:18:14.614Z,97986.48
2022-08-25T11:20:49.710Z,97994.40
2022-08-25T11:23:29.139Z,97995.25
2022-08-25T11:26:09.611Z,98000.73
2022-08-25T11:28:58.155Z,98000.42
2022-08-25T11:31:28.378Z,98000.42
2022-08-25T11:33:57.979Z,98007.82
2022-08-25T11:36:36.839Z,98005.08
2022-08-25T11:39:32.495Z,98014.11
2022-08-25T11:42:17.791Z,98018.22
2022-08-25T11:44:53.580Z,98014.66
2022-08-25T11:47:27.508Z,98030.27
2022-08-25T11:50:11.037Z,98034.92
2022-08-25T11:52:50.971Z,98034.92
2022-08-25T11:55:42.112Z,98042.32
2022-08-25T11:58:17.541Z,98042.02
2022-08-25T12:00:49.416Z,98053.27
2022-08-25T12:03:40.300Z,98048.86
2022-08-25T12:06:28.000Z,98055.70
2022-08-25T12:09:06.815Z,98056.25
2022-08-25T12:11:47.953Z,98058.72
2022-08-25T12:14:28.100Z,98058.72
2022-08-25T12:17:04.195Z,98057.03
2022-08-25T12:19:42.641Z,98061.46
2022-08-25T12:22:15.192Z,98065.27
2022-08-25T12:24:48.778Z,98057.05
2022-08-25T12:27:33.622Z,98054.05
2022-08-25T12:30:18.595Z,98055.41
2022-08-25T12:33:19.625Z,98060.59
2022-08-25T12:35:56.157Z,98062.50
2022-08-25T12:38:50.882Z,98066.34
2022-08-25T12:41:20.473Z,98066.89
2022-08-25T12:43:52.120Z,98067.96
2022-08-25T12:46:28.722Z,98065.20
2022-08-25T12:49:05.935Z,98076.45
2022-08-25T12:51:57.511Z,98071.52
2022-08-25T12:54:40.090Z,98074.27
2022-08-25T12:57:12.811Z,98077.52
2022-08-25T12:59:48.766Z,98077.80
2022-08-25T13:02:33.749Z,98078.34
2022-08-25T13:05:23.048Z,98080.94
2022-08-25T13:08:04.724Z,98088.59
2022-08-25T13:10:46.044Z,98092.58
2022-08-25T13:13:35.154Z,98087.49
2022-08-25T13:16:08.860Z,98086.15
2022-08-25T13:18:42.227Z,98090.58
2022-08-25T13:21:20.282Z,98091.16
2022-08-25T13:23:53.992Z,98088.14
2022-08-25T13:26:32.394Z,98095.28
2022-08-25T13:29:17.761Z,98098.30
2022-08-25T13:32:01.018Z,98106.22
2022-08-25T13:34:34.684Z,98098.45
2022-08-25T13:37:32.767Z,98101.11
2022-08-25T13:40:31.064Z,98102.20
2022-08-25T13:43:03.418Z,98109.64
2022-08-25T13:45:41.443Z,98108.86
2022-08-25T13:48:06.753Z,98108.03
2022-08-25T13:50:40.065Z,98103.11
2022-08-25T13:53:16.857Z,98109.16
2022-08-25T13:55:52.169Z,98114.08
2022-08-25T13:58:38.594Z,98112.44
2022-08-25T14:01:19.687Z,98118.13
2022-08-25T14:03:39.848Z,98115.06
2022-08-25T14:06:13.924Z,98120.31
2022-08-25T14:08:54.776Z,98090.05
2022-08-25T14:11:37.619Z,98116.76
2022-08-25T14:14:10.539Z,98118.13
2022-08-25T14:16:43.452Z,98114.33
2022-08-25T14:19:19.819Z,98117.87
2022-08-25T14:21:50.468Z,98117.60
2022-08-25T14:24:24.323Z,98119.28
2022-08-25T14:26:54.975Z,98117.33
2022-08-25T14:29:24.746Z,98112.84
2022-08-25T14:31:54.679Z,98115.52
2022-08-25T14:34:26.270Z,98114.76
2022-08-25T14:36:57.533Z,98118.31
2022-08-25T14:39:29.924Z,98116.16
2022-08-25T14:41:59.628Z,98116.70
2022-08-25T14:44:30.292Z,98112.59
2022-08-25T14:47:00.702Z,98115.91
2022-08-25T14:49:34.583Z,98108.52
2022-08-25T14:52:04.861Z,98108.52
2022-08-25T14:54:37.574Z,98094.27
2022-08-25T14:57:08.499Z,98100.27
2022-08-25T14:59:43.065Z,98098.05
2022-08-25T15:02:13.740Z,98101.36
2022-08-25T15:04:49.219Z,98098.07
2022-08-25T15:07:33.347Z,98104.66
2022-08-25T15:10:03.250Z,98101.93
2022-08-25T15:12:46.610Z,98102.20
2022-08-25T15:15:04.126Z,98108.19
2022-08-25T15:17:34.654Z,98108.16
2022-08-25T15:20:06.723Z,98103.27
2022-08-25T15:25:05.144Z,98107.12
2022-08-25T15:27:34.730Z,98112.32
2022-08-25T15:30:04.208Z,98116.09
2022-08-25T15:32:33.830Z,98123.20
2022-08-25T15:35:03.542Z,98118.55
2022-08-25T15:37:34.154Z,98115.03
2022-08-25T15:40:03.971Z,98117.22
2022-08-25T15:42:35.291Z,98114.20
2022-08-25T15:45:05.677Z,98124.20
2022-08-25T15:47:35.804Z,98130.50
2022-08-25T15:50:10.439Z,98129.47
2022-08-25T15:52:47.579Z,98128.64
2022-08-25T15:55:13.093Z,98127.61
2022-08-25T15:57:42.765Z,98135.81
2022-08-25T16:00:13.570Z,98124.84
2022-08-25T16:02:44.713Z,98129.16
2022-08-25T16:05:16.505Z,98124.81
2022-08-25T16:07:51.514Z,98119.37
2022-08-25T16:10:20.231Z,98116.64
2022-08-25T16:12:50.952Z,98121.84
2022-08-25T16:15:23.777Z,98130.55
2022-08-25T16:17:53.141Z,98124.78
2022-08-25T16:20:25.034Z,98125.09
2022-08-25T16:22:54.617Z,98122.11
2022-08-25T16:25:24.889Z,98119.41
2022-08-25T16:27:54.485Z,98115.81
2022-08-25T16:30:24.335Z,98118.04
2022-08-25T16:32:54.093Z,98118.04
2022-08-25T16:35:24.211Z,98123.78
2022-08-25T16:37:53.701Z,98122.98
2022-08-25T16:40:25.203Z,98120.80
2022-08-25T16:42:55.985Z,98122.96
2022-08-25T16:45:25.577Z,98115.45
2022-08-25T16:47:56.658Z,98117.95
2022-08-25T16:50:26.266Z,98115.79
2022-08-25T16:53:15.165Z,98113.91
2022-08-25T16:55:47.184Z,98113.91
2022-08-25T16:58:16.596Z,98115.79
2022-08-25T17:00:46.178Z,98110.08
2022-08-25T17:03:17.348Z,98115.30
2022-08-25T17:05:47.148Z,98111.20
2022-08-25T17:08:31.243Z,98110.92
2022-08-25T17:11:15.552Z,98099.38
2022-08-25T17:13:46.686Z,98108.41
2022-08-25T17:16:19.184Z,98104.85
2022-08-25T17:18:50.251Z,98106.80
2022-08-25T17:21:24.834Z,98108.73
2022-08-25T17:23:53.653Z,98104.88
2022-08-25T17:26:27.860Z,98108.47
2022-08-25T17:28:54.967Z,98108.19
2022-08-25T17:31:25.138Z,98099.74
2022-08-25T17:33:54.746Z,98092.91
2022-08-25T17:36:27.205Z,98087.16
2022-08-25T17:38:57.284Z,98095.91
2022-08-25T17:41:30.533Z,98093.42
2022-08-25T17:44:00.081Z,98092.06
2022-08-25T17:46:29.748Z,98093.16
2022-08-25T17:48:59.317Z,98088.80
2022-08-25T17:51:32.043Z,98086.34
2022-08-25T17:54:01.574Z,98083.58
2022-08-25T17:56:32.382Z,98080.30
2022-08-25T17:59:02.602Z,98086.89
2022-08-25T18:01:34.005Z,98081.45
2022-08-25T18:04:04.082Z,98081.45
2022-08-25T18:06:34.290Z,98086.91
2022-08-25T18:09:05.452Z,98087.11
2022-08-25T18:11:35.704Z,98083.31
2022-08-25T18:14:10.769Z,98079.48
2022-08-25T18:16:40.183Z,98075.13
2022-08-25T18:19:11.552Z,98078.41
2022-08-25T18:21:43.389Z,98066.35
2022-08-25T18:24:13.625Z,98065.56
2022-08-25T18:26:43.279Z,98060.36
2022-08-25T18:29:13.706Z,98057.89
2022-08-25T18:31:43.938Z,98056.83
2022-08-25T18:34:13.712Z,98046.44
2022-08-25T18:36:43.224Z,98045.59
2022-08-25T18:39:34.762Z,98048.33
2022-08-25T18:42:04.752Z,98047.27
2022-08-25T18:44:34.460Z,98023.73
2022-08-25T18:47:07.677Z,98028.14
2022-08-25T18:49:35.174Z,98028.69
2022-08-25T18:52:05.175Z,98022.89
2022-08-25T18:54:36.109Z,98024.28
2022-08-25T18:57:08.283Z,98015.53
2022-08-25T18:59:38.072Z,98017.20
2022-08-25T19:02:08.150Z,98015.02
2022-08-25T19:04:38.228Z,98015.50
2022-08-25T19:07:09.656Z,98016.90
2022-08-25T19:09:39.269Z,98012.28
2022-08-25T19:12:11.839Z,98007.08
2022-08-25T19:14:40.552Z,98003.80
2022-08-25T19:17:10.479Z,98001.88
2022-08-25T19:19:40.021Z,97999.97
2022-08-25T19:22:38.117Z,97990.41
2022-08-25T19:24:41.473Z,97990.67
2022-08-25T19:27:12.970Z,97987.69
2022-08-25T19:29:42.878Z,97980.85
2022-08-25T19:32:12.642Z,97980.00
2022-08-25T19:34:43.468Z,97980.00
2022-08-25T19:37:13.566Z,97976.20
2022-08-25T19:39:52.734Z,97972.37
2022-08-25T19:42:36.819Z,97958.69
2022-08-25T19:44:49.357Z,97962.80
2022-08-25T19:47:21.827Z,97966.87
2022-08-25T19:52:23.919Z,97962.22
2022-08-25T19:54:55.172Z,97961.70
2022-08-25T19:57:28.460Z,97960.33
2022-08-25T19:59:56.502Z,97952.13
2022-08-25T20:02:29.548Z,97952.41
2022-08-25T20:05:00.216Z,97953.22
2022-08-25T20:07:31.295Z,97949.69
2022-08-25T20:10:01.195Z,97940.39
2022-08-25T20:12:31.006Z,97935.71
2022-08-25T20:15:00.708Z,97934.34
2022-08-25T20:17:30.296Z,97936.81
2022-08-25T20:20:01.557Z,97927.51
2022-08-25T20:22:33.398Z,97921.79
2022-08-25T20:25:13.201Z,97920.97
2022-08-25T20:27:45.526Z,97920.97
2022-08-25T20:30:20.010Z,97907.55
2022-08-25T20:32:50.884Z,97909.21
2022-08-25T20:35:21.656Z,97906.20
2022-08-25T20:37:53.720Z,97905.64
2022-08-25T20:40:25.286Z,97896.07
2022-08-25T20:42:56.438Z,97898.81
2022-08-25T20:45:26.180Z,97894.98
2022-08-25T20:47:56.385Z,97891.16
2022-08-25T20:50:26.044Z,97882.95
2022-08-25T20:52:57.035Z,97884.61
2022-08-25T20:55:28.343Z,97879.41
2022-08-25T20:57:58.232Z,97880.51
2022-08-25T21:00:27.840Z,97887.89
2022-08-25T21:02:57.432Z,97873.69
2022-08-25T21:05:27.131Z,97878.61
2022-08-25T21:07:56.632Z,97868.48
2022-08-25T21:10:26.573Z,97875.08
2022-08-25T21:12:56.197Z,97868.22
2022-08-25T21:15:26.014Z,97866.28
2022-08-25T21:17:55.988Z,97861.63
2022-08-25T21:20:25.690Z,97861.38
2022-08-25T21:22:55.209Z,97850.16
2022-08-25T21:25:26.311Z,97854.28
2022-08-25T21:27:55.949Z,97846.63
2022-08-25T21:30:27.583Z,97850.17
2022-08-25T21:32:58.379Z,97843.34
2022-08-25T21:35:28.036Z,97846.09
2022-08-25T21:37:59.215Z,97841.44
2022-08-25T21:40:28.887Z,97838.70
2022-08-25T21:42:58.599Z,97832.16
2022-08-25T21:45:28.629Z,97832.16
2022-08-25T21:47:59.818Z,97825.33
2022-08-25T21:50:29.525Z,97819.31
2022-08-25T21:52:59.353Z,97819.03
2022-08-25T21:55:28.961Z,97819.33
2022-08-25T21:57:58.907Z,97809.20
2022-08-25T22:00:28.633Z,97805.91
2022-08-25T22:02:59.291Z,97807.03
2022-08-25T22:05:29.497Z,97783.42
2022-08-25T22:07:59.006Z,97802.64
2022-08-25T22:10:28.819Z,97799.66
2022-08-25T22:12:58.368Z,97793.89
2022-08-25T22:15:28.159Z,97801.55
2022-08-25T22:17:57.776Z,97808.14
2022-08-25T22:20:27.652Z,97807.33
2022-08-25T22:22:58.657Z,97803.23
2022-08-25T22:25:29.754Z,97792.84
2022-08-25T22:28:01.151Z,97792.28
2022-08-25T22:30:31.499Z,97795.02
2022-08-25T22:33:01.195Z,97796.39
2022-08-25T22:35:33.328Z,97796.39
2022-08-25T22:38:02.950Z,97787.88
2022-08-25T22:40:36.311Z,97791.19
2022-08-25T22:43:05.985Z,97770.61
2022-08-25T22:45:37.261Z,97770.61
2022-08-25T22:48:08.680Z,97787.09
2022-08-25T22:50:39.106Z,97790.13
2022-08-25T22:53:10.022Z,97786.57
2022-08-25T22:55:42.687Z,97789.05
2022-08-25T22:58:15.846Z,97780.84
2022-08-25T23:00:45.448Z,97784.66
2022-08-25T23:03:16.428Z,97791.50
2022-08-25T23:05:46.444Z,97786.33
2022-08-25T23:08:16.162Z,97787.96
2022-08-25T23:10:52.630Z,97788.26
2022-08-25T23:13:34.172Z,97781.94
2022-08-25T23:15:55.024Z,97781.13
2022-08-25T23:18:24.636Z,97782.50
2022-08-25T23:21:13.086Z,97785.79
2022-08-25T23:23:44.345Z,97782.50
2022-08-25T23:26:13.985Z,97778.95
2022-08-25T23:28:44.810Z,97783.31
2022-08-25T23:31:14.623Z,97778.14
2022-08-25T23:33:46.278Z,97776.77
2022-08-25T23:36:16.752Z,97782.52
2022-08-25T23:38:51.636Z,97777.59
2022-08-25T23:41:25.327Z,97780.59
2022-08-25T23:43:54.436Z,97780.33
2022-08-25T23:46:25.329Z,97781.41
2022-08-25T23:48:56.269Z,97783.07
2022-08-25T23:51:28.083Z,97789.62
2022-08-25T23:53:59.286Z,97784.14
2022-08-25T23:56:32.080Z,97780.89
2022-08-25T23:59:02.247Z,97782.78
